Crestview, FL

6:29 PM CDT on August 24, 2016 (GMT -0500)
Sikes | | Change Station

Elev 213 ft 30.78 °N, 86.52 °W | Updated 36 minutes ago

Clear
Clear
81 °F
Feels Like 87 °F
N
4
Wind Variable Wind from NW

Today
High -- | Low -- °F
--% Chance of Precip.
Yesterday
High -- | Low -- °F
Precip. -- in
Pressure 30.12 in
Visibility 10.0 miles
Clouds Clear
Heat Index 87 °F
Dew Point 75 °F
Humidity 82%
Rainfall 0.09 in
Snow Depth Not available.
6:18 AM 7:17 PM
Waning Gibbous, 52% visible
METAR KCEW 242253Z AUTO 32003KT 10SM CLR 27/24 A3013 RMK AO2 LTG DSNT E AND SE SLP199 T02720239
Pressure 30.12 in
Visibility 10.0 miles
Clouds Clear
Heat Index 87 °F
Dew Point 75 °F
Humidity 82%
Rainfall 0.09 in
Snow Depth Not available.
6:18 AM 7:17 PM
Waning Gibbous, 52% visible
METAR KCEW 242253Z AUTO 32003KT 10SM CLR 27/24 A3013 RMK AO2 LTG DSNT E AND SE SLP199 T02720239

10-Day Weather Forecast

Almanac

Astronomy

Aug. 24, 2016 Rise Set
Actual Time
Civil Twilight
Nautical Twilight
Astronomical Twilight
Moon
Length of Visible Light
Length of Day
Tomorrow will be .
, % of the Moon is Illuminated

Today's Extremes

State Highs State Lows

Community

WunderPhotos

Upload Photos

1,934,731 photos uploaded!

WunderBlog® & News

Nearby

Air Quality

  Air Quality AQ Index Pollutant
Not available.

Snow Depth

Station Depth Elevation

Earthquake Activity

City Distance Mag. Time & Date
Minimum magnitude displayed is 2.5.

Coastal Water Temperatures

Place Temperature

Stations

Nearby Weather Stations

Station Location Temp. Windchill Dew Point Humidity Wind Precip. Elev Updated Type
                   

Watches & Warnings

There are currently no watches in effect.